Terminal Aerodrome Forecast
Issued by NWS

Home | Current Version | Previous Version | Text Only | Print | Product List | Glossary On
Versions: 1 2 3 4 5 6 7 8 9 10 11 12 13 14 15 16
000
FTUS41 KPHI 221500 AAC
TAFPNE
TAF AMD
KPNE 221546Z 2216/2312 02014G22KT 5SM -RA BR OVC015
     FM222100 35016G25KT 6SM -RA BKN020
     FM230200 35016KT P6SM OVC035
     FM230600 32015KT P6SM -RA OVC025=

USA.gov is the U.S. government's official web portal to all federal, state and local government web resources and services.